Time;durP1;ratioP1;P1;durP2;ratioP2;P2;SDS_P1;SDS_P2;PMS_P1;PMS_P2;Temp;Humidity;BMP_temperature;BMP_pressure;BME280_temperature;BME280_humidity;BME280_pressure;Samples;Min_cycle;Max_cycle;Signal;HPM_P1;HPM_P2
2023/01/25 00:01:44;;;;;;;21.48;12.43;;;3.80;90.10;;;;;;5021583;28;20396;-63
2023/01/25 00:04:10;;;;;;;20.83;12.57;;;3.80;90.10;;;;;;5024094;28;20044;-62
2023/01/25 00:06:35;;;;;;;19.88;11.70;;;3.80;90.10;;;;;;5021828;28;20044;-61
2023/01/25 00:09:01;;;;;;;18.58;11.18;;;3.80;90.10;;;;;;5023652;28;20502;-63
2023/01/25 00:11:27;;;;;;;20.38;11.68;;;3.80;90.20;;;;;;5023441;28;20041;-62
2023/01/25 00:13:53;;;;;;;21.05;11.73;;;3.80;90.20;;;;;;5023143;28;20304;-62
2023/01/25 00:16:19;;;;;;;20.02;11.65;;;3.80;90.20;;;;;;5019543;28;20555;-61
2023/01/25 00:18:45;;;;;;;20.65;12.05;;;3.80;90.10;;;;;;5022618;28;20064;-63
2023/01/25 00:21:17;;;;;;;21.05;11.32;;;3.80;90.10;;;;;;5019840;28;20065;-63
2023/01/25 00:23:42;;;;;;;19.20;10.93;;;3.80;90.20;;;;;;5019018;28;20041;-63
2023/01/25 00:26:08;;;;;;;18.05;11.32;;;3.80;90.10;;;;;;5021577;28;20040;-63
2023/01/25 00:28:34;;;;;;;19.13;11.27;;;3.80;90.10;;;;;;5021678;28;20041;-61
2023/01/25 00:31:01;;;;;;;19.05;11.57;;;3.80;90.10;;;;;;5018178;28;20068;-61
2023/01/25 00:33:54;;;;;;;18.35;10.93;;;3.80;90.10;;;;;;5022367;28;20034;-61
2023/01/25 00:36:38;;;;;;;19.17;10.27;;;3.80;90.10;;;;;;5018821;28;20033;-62
2023/01/25 00:39:05;;;;;;;18.70;10.70;;;3.80;90.10;;;;;;5019504;28;20040;-62
2023/01/25 00:41:31;;;;;;;18.08;10.25;;;3.80;90.00;;;;;;5021998;28;20057;-62
2023/01/25 00:43:57;;;;;;;18.52;10.85;;;3.80;90.00;;;;;;5021871;28;20377;-61
2023/01/25 00:46:22;;;;;;;16.80;10.10;;;3.80;90.00;;;;;;5019674;28;20131;-62
2023/01/25 00:48:48;;;;;;;18.30;10.23;;;3.80;90.10;;;;;;5020055;28;20117;-62
2023/01/25 00:51:14;;;;;;;17.42;10.57;;;3.80;90.10;;;;;;5023510;28;20041;-60
2023/01/25 00:53:40;;;;;;;16.83;10.10;;;3.80;90.00;;;;;;5016733;28;20763;-62
2023/01/25 00:56:06;;;;;;;16.63;10.13;;;3.80;90.00;;;;;;5021852;28;20133;-60
2023/01/25 00:58:32;;;;;;;16.13;10.00;;;3.80;90.00;;;;;;5018355;28;20606;-61
2023/01/25 01:00:57;;;;;;;16.05;9.48;;;3.80;90.00;;;;;;5022068;28;20044;-60
2023/01/25 01:03:23;;;;;;;16.08;9.80;;;3.80;90.00;;;;;;5023194;28;20036;-61
2023/01/25 01:06:02;;;;;;;16.33;9.73;;;3.80;90.00;;;;;;5021776;28;20038;-62
2023/01/25 01:08:27;;;;;;;15.65;9.43;;;3.90;90.00;;;;;;5023875;28;20034;-60
2023/01/25 01:11:02;;;;;;;15.93;9.27;;;3.80;90.00;;;;;;5023578;28;20037;-60
2023/01/25 01:13:29;;;;;;;15.95;10.07;;;3.80;90.00;;;;;;5022025;28;20041;-61
2023/01/25 01:15:55;;;;;;;17.05;9.75;;;3.80;90.00;;;;;;5020375;28;20033;-62
2023/01/25 01:18:21;;;;;;;15.38;9.55;;;3.80;90.00;;;;;;5020739;28;20049;-61
2023/01/25 01:20:48;;;;;;;14.15;8.65;;;3.80;90.00;;;;;;5016418;28;20083;-62
2023/01/25 01:23:14;;;;;;;16.88;9.75;;;3.80;90.00;;;;;;5017662;28;20037;-60
2023/01/25 01:25:40;;;;;;;17.02;9.80;;;3.80;90.00;;;;;;5020058;28;20408;-63
2023/01/25 01:28:05;;;;;;;15.23;9.55;;;3.80;90.00;;;;;;5020316;28;20045;-60
2023/01/25 01:30:31;;;;;;;16.73;9.30;;;3.80;90.00;;;;;;5018857;28;20531;-60
2023/01/25 01:32:56;;;;;;;17.27;10.18;;;3.80;89.90;;;;;;5018919;28;20040;-60
2023/01/25 01:35:22;;;;;;;14.52;9.38;;;3.80;89.80;;;;;;5020458;28;20038;-62
2023/01/25 01:37:47;;;;;;;18.20;10.52;;;3.90;89.80;;;;;;5021268;28;20034;-61
2023/01/25 01:40:14;;;;;;;17.20;9.73;;;3.80;89.80;;;;;;5019857;28;20030;-61
2023/01/25 01:43:01;;;;;;;15.98;9.35;;;3.80;89.80;;;;;;5018240;28;20505;-61
2023/01/25 01:45:45;;;;;;;16.23;9.85;;;3.90;89.90;;;;;;5020026;28;20041;-61
2023/01/25 01:48:32;;;;;;;16.73;9.70;;;3.80;89.80;;;;;;5020254;28;20061;-61
2023/01/25 01:51:18;;;;;;;16.40;9.48;;;3.80;89.80;;;;;;5020459;28;20063;-60
2023/01/25 01:53:52;;;;;;;15.48;9.40;;;3.80;89.60;;;;;;5021912;28;20037;-61
2023/01/25 01:56:24;;;;;;;18.33;9.73;;;3.80;89.70;;;;;;5022060;28;20400;-61
2023/01/25 01:58:54;;;;;;;19.05;9.55;;;3.90;89.80;;;;;;5019625;28;20049;-60
2023/01/25 02:01:20;;;;;;;16.25;9.65;;;3.80;89.70;;;;;;5018776;28;20037;-61
2023/01/25 02:03:47;;;;;;;15.80;9.75;;;3.80;89.60;;;;;;5017894;28;20048;-62
2023/01/25 02:06:26;;;;;;;15.05;9.13;;;3.80;89.60;;;;;;5021012;28;20504;-61
2023/01/25 02:08:53;;;;;;;16.55;9.48;;;3.90;89.70;;;;;;5020590;28;20683;-61
2023/01/25 02:11:19;;;;;;;14.77;8.65;;;3.90;89.70;;;;;;5020847;28;20049;-61
2023/01/25 02:13:47;;;;;;;17.00;9.15;;;3.90;89.60;;;;;;5025820;28;20401;-60
2023/01/25 02:16:19;;;;;;;15.35;9.32;;;3.80;89.50;;;;;;5024800;28;20118;-60
2023/01/25 02:18:45;;;;;;;16.75;9.23;;;3.80;89.50;;;;;;5021278;28;20042;-60
2023/01/25 02:21:11;;;;;;;17.55;9.40;;;3.90;89.40;;;;;;5022105;28;20492;-61
2023/01/25 02:23:48;;;;;;;15.65;9.18;;;3.90;89.50;;;;;;5022509;28;20052;-62
2023/01/25 02:26:16;;;;;;;13.93;8.40;;;3.80;89.40;;;;;;5023635;28;20477;-61
2023/01/25 02:28:49;;;;;;;17.02;9.15;;;3.80;89.30;;;;;;5020184;28;20079;-62
2023/01/25 02:31:16;;;;;;;16.42;9.18;;;3.80;89.40;;;;;;5023363;28;20041;-61
2023/01/25 02:33:42;;;;;;;16.23;9.15;;;3.80;89.50;;;;;;5021140;28;20052;-60
2023/01/25 02:36:07;;;;;;;16.67;9.30;;;3.80;89.50;;;;;;5023539;28;20041;-61
2023/01/25 02:38:37;;;;;;;16.52;9.57;;;3.80;89.60;;;;;;5020688;28;20033;-62
2023/01/25 02:41:12;;;;;;;15.93;8.50;;;3.80;89.60;;;;;;5021750;28;20041;-60
2023/01/25 02:43:38;;;;;;;15.43;8.73;;;3.80;89.60;;;;;;5023216;28;20132;-59
2023/01/25 02:46:14;;;;;;;14.20;8.18;;;3.80;89.50;;;;;;5025263;28;20087;-60
2023/01/25 02:48:40;;;;;;;14.00;8.63;;;3.80;89.40;;;;;;5024422;28;20045;-62
2023/01/25 02:51:07;;;;;;;16.25;9.32;;;3.80;89.30;;;;;;5021172;28;20045;-61
2023/01/25 02:53:32;;;;;;;16.67;8.82;;;3.80;89.30;;;;;;5024122;28;20415;-60
2023/01/25 02:55:58;;;;;;;17.17;9.35;;;3.80;89.40;;;;;;5023959;28;20090;-60
2023/01/25 02:58:24;;;;;;;18.20;9.80;;;3.80;89.30;;;;;;5024828;28;20148;-61
2023/01/25 03:00:49;;;;;;;16.45;9.27;;;3.80;89.40;;;;;;5022106;28;20064;-62
2023/01/25 03:03:15;;;;;;;17.80;9.63;;;3.80;89.40;;;;;;5024681;28;20038;-62
2023/01/25 03:05:40;;;;;;;17.92;10.10;;;3.80;89.50;;;;;;5023271;28;20037;-61
2023/01/25 03:08:06;;;;;;;18.60;9.73;;;3.80;89.50;;;;;;5018646;28;20511;-61
2023/01/25 03:10:31;;;;;;;18.88;10.07;;;3.80;89.60;;;;;;5019475;28;20441;-61
2023/01/25 03:12:57;;;;;;;19.60;10.45;;;3.80;89.60;;;;;;5016553;28;20040;-61
2023/01/25 03:15:23;;;;;;;17.30;9.35;;;3.80;89.60;;;;;;5023513;28;20135;-61
2023/01/25 03:17:48;;;;;;;19.20;10.23;;;3.80;89.60;;;;;;5024252;28;20041;-61
2023/01/25 03:20:14;;;;;;;18.85;9.88;;;3.80;89.60;;;;;;5021473;28;20037;-61
2023/01/25 03:22:39;;;;;;;21.02;10.50;;;3.80;89.60;;;;;;5022259;28;20033;-62
2023/01/25 03:25:06;;;;;;;19.50;10.20;;;3.80;89.50;;;;;;5020537;28;20094;-61
2023/01/25 03:27:31;;;;;;;21.70;10.45;;;3.80;89.50;;;;;;5024162;28;20539;-62
2023/01/25 03:29:57;;;;;;;21.88;10.27;;;3.80;89.40;;;;;;5021912;28;20037;-61
2023/01/25 03:32:22;;;;;;;18.33;10.02;;;3.80;89.40;;;;;;5020575;28;20539;-60
2023/01/25 03:34:48;;;;;;;18.52;9.43;;;3.80;89.50;;;;;;5022824;28;20041;-62
2023/01/25 03:37:14;;;;;;;18.92;10.13;;;3.80;89.50;;;;;;5020915;28;20497;-61
2023/01/25 03:39:39;;;;;;;20.63;10.07;;;3.80;89.60;;;;;;5023112;28;20191;-60
2023/01/25 03:42:05;;;;;;;20.70;10.45;;;3.80;89.50;;;;;;5023872;28;20555;-62
2023/01/25 03:44:31;;;;;;;19.27;10.23;;;3.80;89.60;;;;;;5020012;28;20044;-61
2023/01/25 03:46:56;;;;;;;17.17;9.75;;;3.80;89.60;;;;;;5022351;28;20461;-62
2023/01/25 03:49:22;;;;;;;16.95;9.43;;;3.70;89.60;;;;;;5025007;28;20124;-61
2023/01/25 03:51:48;;;;;;;20.55;9.80;;;3.70;89.70;;;;;;5021333;28;20087;-61
2023/01/25 03:54:14;;;;;;;19.15;9.85;;;3.70;89.60;;;;;;5024255;28;20520;-61
2023/01/25 03:56:39;;;;;;;18.13;9.48;;;3.80;89.70;;;;;;5019718;28;20034;-61
2023/01/25 03:59:05;;;;;;;19.75;10.20;;;3.80;89.70;;;;;;5022570;28;20389;-61
2023/01/25 04:01:31;;;;;;;20.90;10.82;;;3.70;89.60;;;;;;5023393;28;20045;-62
2023/01/25 04:03:57;;;;;;;19.83;10.27;;;3.70;89.60;;;;;;5024196;28;20059;-61
2023/01/25 04:06:22;;;;;;;20.20;10.13;;;3.70;89.60;;;;;;5023167;28;20108;-62
2023/01/25 04:08:48;;;;;;;21.20;10.77;;;3.70;89.60;;;;;;5024913;28;22119;-63
2023/01/25 04:11:13;;;;;;;18.30;9.65;;;3.70;89.80;;;;;;5021054;28;20128;-61
2023/01/25 04:13:39;;;;;;;20.98;10.38;;;3.70;89.70;;;;;;5026414;28;20468;-61
2023/01/25 04:16:06;;;;;;;22.30;10.60;;;3.70;89.80;;;;;;5022010;28;20053;-61
2023/01/25 04:18:32;;;;;;;22.08;11.00;;;3.70;89.80;;;;;;5023186;28;20120;-62
2023/01/25 04:20:57;;;;;;;20.83;10.25;;;3.80;89.80;;;;;;5024540;28;20493;-61
2023/01/25 04:23:24;;;;;;;21.17;10.90;;;3.80;89.80;;;;;;5020311;28;20088;-60
2023/01/25 04:25:58;;;;;;;22.33;10.68;;;3.70;89.80;;;;;;5021075;28;20578;-62
2023/01/25 04:28:24;;;;;;;20.38;10.10;;;3.70;89.80;;;;;;5026037;28;20501;-62
2023/01/25 04:30:50;;;;;;;19.02;9.95;;;3.70;89.80;;;;;;5023123;28;20176;-62
2023/01/25 04:33:16;;;;;;;21.42;10.70;;;3.80;89.80;;;;;;5021028;28;20120;-61
2023/01/25 04:35:42;;;;;;;24.00;11.00;;;3.70;89.80;;;;;;5022798;28;20042;-61
2023/01/25 04:38:09;;;;;;;19.25;10.35;;;3.70;89.70;;;;;;5022269;28;20060;-61
2023/01/25 04:40:34;;;;;;;20.08;10.13;;;3.70;89.80;;;;;;5022523;28;20041;-61
2023/01/25 04:43:00;;;;;;;19.83;10.82;;;3.70;89.80;;;;;;5023019;28;20052;-62
2023/01/25 04:45:26;;;;;;;19.95;10.48;;;3.70;89.80;;;;;;5024078;28;20386;-61
2023/01/25 04:47:59;;;;;;;20.38;10.38;;;3.70;89.80;;;;;;5023389;28;20103;-61
2023/01/25 04:50:25;;;;;;;16.37;7.93;;;3.70;89.80;;;;;;5022931;28;20056;-61
2023/01/25 04:52:52;;;;;;;19.90;10.25;;;3.70;89.80;;;;;;5021989;28;20269;-61
2023/01/25 04:55:18;;;;;;;19.98;10.07;;;3.70;89.80;;;;;;5037230;28;20409;-60
2023/01/25 04:57:43;;;;;;;18.10;9.45;;;3.70;89.80;;;;;;5023355;28;20041;-61
2023/01/25 05:00:11;;;;;;;22.98;10.70;;;3.70;89.80;;;;;;5019921;28;20045;-61
2023/01/25 05:02:38;;;;;;;21.25;10.35;;;3.70;89.90;;;;;;5020206;28;20053;-62
2023/01/25 05:05:04;;;;;;;20.92;10.35;;;3.70;90.30;;;;;;5018252;28;20060;-61
2023/01/25 05:07:30;;;;;;;21.15;10.43;;;3.70;89.80;;;;;;5024066;28;20065;-62
2023/01/25 05:09:55;;;;;;;21.10;10.73;;;3.70;89.90;;;;;;5019405;28;20128;-59
2023/01/25 05:12:21;;;;;;;21.42;10.57;;;3.70;89.90;;;;;;5017663;28;20400;-60
2023/01/25 05:14:46;;;;;;;23.70;11.27;;;3.70;90.00;;;;;;5020651;28;20042;-62
2023/01/25 05:17:12;;;;;;;32.95;14.07;;;3.70;89.90;;;;;;5021036;28;20080;-60
2023/01/25 05:19:37;;;;;;;30.95;13.50;;;3.70;89.90;;;;;;5018169;28;20059;-61
2023/01/25 05:22:06;;;;;;;32.40;13.48;;;3.70;89.80;;;;;;5020432;28;20132;-61
2023/01/25 05:24:33;;;;;;;24.23;11.23;;;3.70;89.90;;;;;;5018919;28;22282;-60
2023/01/25 05:27:00;;;;;;;19.83;10.38;;;3.70;89.90;;;;;;5022413;28;20416;-60
2023/01/25 05:29:37;;;;;;;19.48;10.18;;;3.60;89.90;;;;;;5020985;28;20084;-60
2023/01/25 05:32:11;;;;;;;19.83;10.32;;;3.60;90.00;;;;;;5024394;28;20040;-61
2023/01/25 05:34:37;;;;;;;18.63;9.68;;;3.70;90.00;;;;;;5024485;28;20037;-60
2023/01/25 05:37:05;;;;;;;18.08;9.18;;;3.60;90.00;;;;;;5023853;28;20038;-62
2023/01/25 05:39:30;;;;;;;21.85;10.43;;;3.70;90.00;;;;;;5023827;28;20459;-63
2023/01/25 05:41:56;;;;;;;22.17;10.75;;;3.70;90.00;;;;;;5026342;28;20038;-62
2023/01/25 05:44:22;;;;;;;22.35;10.27;;;3.70;90.00;;;;;;5028183;28;20414;-61
2023/01/25 05:46:48;;;;;;;19.92;10.07;;;3.70;89.90;;;;;;5026944;28;20489;-62
2023/01/25 05:49:14;;;;;;;21.48;10.38;;;3.70;89.90;;;;;;5029295;28;20052;-61
2023/01/25 05:51:40;;;;;;;19.55;9.52;;;3.70;89.90;;;;;;5028712;28;20059;-60
2023/01/25 05:54:06;;;;;;;18.00;8.68;;;3.70;89.90;;;;;;5028748;28;20456;-60
2023/01/25 05:56:32;;;;;;;20.33;9.70;;;3.70;89.90;;;;;;5028022;28;20278;-61
2023/01/25 05:58:59;;;;;;;18.85;9.50;;;3.70;89.90;;;;;;5028872;28;20148;-61
2023/01/25 06:01:26;;;;;;;20.73;9.63;;;3.70;89.90;;;;;;5028105;28;20039;-60
2023/01/25 06:03:52;;;;;;;22.27;10.43;;;3.70;89.90;;;;;;5028270;28;20115;-60
2023/01/25 06:06:18;;;;;;;19.38;10.15;;;3.70;89.80;;;;;;5027479;28;20077;-60
2023/01/25 06:08:44;;;;;;;19.98;9.80;;;3.70;89.80;;;;;;5028279;28;20052;-62
2023/01/25 06:11:12;;;;;;;20.67;10.02;;;3.70;89.80;;;;;;5023651;28;20044;-61
2023/01/25 06:13:38;;;;;;;21.13;9.95;;;3.70;89.90;;;;;;5027063;28;20048;-61
2023/01/25 06:16:04;;;;;;;19.63;10.18;;;3.70;90.00;;;;;;5027730;28;20038;-62
2023/01/25 06:18:30;;;;;;;19.42;10.05;;;3.70;89.80;;;;;;5027299;28;20048;-60
2023/01/25 06:20:57;;;;;;;24.10;10.35;;;3.70;89.80;;;;;;5027043;28;20033;-60
2023/01/25 06:23:23;;;;;;;22.67;11.25;;;3.70;89.60;;;;;;5028107;28;20032;-60
2023/01/25 06:25:48;;;;;;;20.45;10.15;;;3.70;89.60;;;;;;5026736;28;20041;-61
2023/01/25 06:28:14;;;;;;;22.13;10.63;;;3.70;89.50;;;;;;5026628;28;20056;-60
2023/01/25 06:30:40;;;;;;;19.60;10.05;;;3.60;89.30;;;;;;5027476;28;20041;-60
2023/01/25 06:33:05;;;;;;;20.08;9.88;;;3.60;89.30;;;;;;5025431;28;20034;-61
2023/01/25 06:35:32;;;;;;;17.10;9.60;;;3.60;89.30;;;;;;5027269;28;20037;-60
2023/01/25 06:37:59;;;;;;;18.88;10.02;;;3.60;89.40;;;;;;5027012;28;20037;-61
2023/01/25 06:40:26;;;;;;;19.52;9.90;;;3.50;89.40;;;;;;5026870;28;20061;-61
2023/01/25 06:42:52;;;;;;;19.38;9.43;;;3.50;89.50;;;;;;5025896;28;20053;-61
2023/01/25 06:45:18;;;;;;;17.40;9.73;;;3.50;89.60;;;;;;5026831;28;20761;-61
2023/01/25 06:47:45;;;;;;;17.27;9.30;;;3.60;89.70;;;;;;5028275;28;20047;-61
2023/01/25 06:50:11;;;;;;;18.17;9.52;;;3.60;89.60;;;;;;5025752;28;20033;-60
2023/01/25 06:52:36;;;;;;;19.13;10.35;;;3.60;89.60;;;;;;5025192;28;20334;-61
2023/01/25 06:55:03;;;;;;;18.33;9.55;;;3.60;89.60;;;;;;5026939;28;20038;-60
2023/01/25 06:57:29;;;;;;;18.30;9.27;;;3.60;89.30;;;;;;5027797;28;20051;-61
2023/01/25 06:59:54;;;;;;;22.45;11.07;;;3.50;89.30;;;;;;5026195;28;20038;-59
2023/01/25 07:02:20;;;;;;;20.20;9.85;;;3.50;89.20;;;;;;5027056;28;20164;-60
2023/01/25 07:04:46;;;;;;;19.77;9.98;;;3.50;89.30;;;;;;5026255;28;20136;-60
2023/01/25 07:07:12;;;;;;;20.65;10.35;;;3.50;89.30;;;;;;5027411;28;20451;-62
2023/01/25 07:09:37;;;;;;;21.05;9.98;;;3.50;89.30;;;;;;5025745;28;20034;-62
2023/01/25 07:12:03;;;;;;;19.65;9.52;;;3.50;89.40;;;;;;5022145;28;20030;-60
2023/01/25 07:14:30;;;;;;;20.35;10.13;;;3.50;89.40;;;;;;5025879;28;20111;-61
2023/01/25 07:16:56;;;;;;;19.08;9.88;;;3.40;89.40;;;;;;5026402;28;20041;-60
2023/01/25 07:19:21;;;;;;;22.58;10.25;;;3.50;89.70;;;;;;5026965;28;20467;-62
2023/01/25 07:21:47;;;;;;;18.75;10.05;;;3.50;89.70;;;;;;5026458;28;20121;-62
2023/01/25 07:24:15;;;;;;;22.30;10.45;;;3.50;89.70;;;;;;5026049;28;20033;-62
2023/01/25 07:26:40;;;;;;;20.58;10.05;;;3.50;89.60;;;;;;5026475;28;20083;-61
2023/01/25 07:29:08;;;;;;;20.63;10.15;;;3.50;89.60;;;;;;5024428;28;20044;-60
2023/01/25 07:31:34;;;;;;;18.90;10.38;;;3.50;89.70;;;;;;5026669;28;20504;-60
2023/01/25 07:34:00;;;;;;;20.73;9.98;;;3.50;89.60;;;;;;5026172;28;20125;-61
2023/01/25 07:36:25;;;;;;;21.45;10.27;;;3.50;89.60;;;;;;5027198;28;20033;-61
2023/01/25 07:38:55;;;;;;;22.13;10.70;;;3.50;89.60;;;;;;5026971;28;20029;-61
2023/01/25 07:41:22;;;;;;;23.15;10.98;;;3.60;89.70;;;;;;5025095;28;20045;-62
2023/01/25 07:43:47;;;;;;;22.02;10.63;;;3.60;89.60;;;;;;5025109;28;20124;-62
2023/01/25 07:46:14;;;;;;;23.50;11.10;;;3.60;89.60;;;;;;5027223;28;20121;-61
2023/01/25 07:48:45;;;;;;;22.95;10.55;;;3.50;89.50;;;;;;5025057;28;20425;-62
2023/01/25 07:51:11;;;;;;;21.92;10.82;;;3.50;89.50;;;;;;5028690;28;20038;-63
2023/01/25 07:53:41;;;;;;;21.45;10.60;;;3.50;89.50;;;;;;5030163;28;20033;-63
2023/01/25 07:56:08;;;;;;;23.85;11.15;;;3.50;89.50;;;;;;5023869;28;20400;-61
2023/01/25 07:58:34;;;;;;;22.40;10.88;;;3.50;89.50;;;;;;5025323;28;20038;-62
2023/01/25 08:01:10;;;;;;;21.67;11.13;;;3.50;89.50;;;;;;5025191;28;20048;-62
2023/01/25 08:03:36;;;;;;;22.75;10.85;;;3.60;89.70;;;;;;5026153;28;20148;-60
2023/01/25 08:06:05;;;;;;;24.45;11.00;;;3.60;89.70;;;;;;5024965;28;20046;-60
2023/01/25 08:08:36;;;;;;;21.25;10.80;;;3.60;89.70;;;;;;5025044;28;20046;-61
2023/01/25 08:11:12;;;;;;;24.50;11.15;;;3.60;89.70;;;;;;5024432;28;20100;-59
2023/01/25 08:13:38;;;;;;;21.23;10.75;;;3.60;89.60;;;;;;5024363;28;20587;-61
2023/01/25 08:16:04;;;;;;;21.70;10.45;;;3.60;89.50;;;;;;5027281;28;20034;-60
2023/01/25 08:18:29;;;;;;;22.70;11.00;;;3.60;89.60;;;;;;5027052;28;20475;-60
2023/01/25 08:20:58;;;;;;;19.58;9.68;;;3.60;89.60;;;;;;5026589;28;20083;-60
2023/01/25 08:23:25;;;;;;;22.02;10.82;;;3.60;89.60;;;;;;5027471;28;20473;-62
2023/01/25 08:25:50;;;;;;;20.73;10.30;;;3.60;89.50;;;;;;5026796;28;20049;-62
2023/01/25 08:28:16;;;;;;;18.65;10.10;;;3.60;89.50;;;;;;5025791;28;20512;-61
2023/01/25 08:30:41;;;;;;;20.55;10.02;;;3.60;89.40;;;;;;5024500;28;20048;-62
2023/01/25 08:33:07;;;;;;;22.60;10.60;;;3.60;89.40;;;;;;5025588;28;20021;-60
2023/01/25 08:35:34;;;;;;;17.13;9.30;;;3.70;89.50;;;;;;5025995;28;20504;-60
2023/01/25 08:38:00;;;;;;;19.42;9.98;;;3.70;89.50;;;;;;5023609;28;20272;-62
2023/01/25 08:40:25;;;;;;;18.08;9.52;;;3.70;89.40;;;;;;5024354;28;20029;-61
2023/01/25 08:42:51;;;;;;;18.98;9.80;;;3.70;89.40;;;;;;5024862;28;20440;-61
2023/01/25 08:45:16;;;;;;;20.33;10.10;;;3.70;89.20;;;;;;5025470;28;20029;-60
2023/01/25 08:47:42;;;;;;;19.30;9.68;;;3.70;89.10;;;;;;5026095;28;20575;-62
2023/01/25 08:50:08;;;;;;;19.13;9.60;;;3.70;89.10;;;;;;5025173;28;20570;-61
2023/01/25 08:52:34;;;;;;;17.55;9.82;;;3.70;89.10;;;;;;5025113;28;20045;-61
2023/01/25 08:54:59;;;;;;;20.60;9.75;;;3.70;89.00;;;;;;5024408;28;20095;-61
2023/01/25 08:57:25;;;;;;;19.25;9.32;;;3.70;88.90;;;;;;5025076;28;20599;-60
2023/01/25 08:59:50;;;;;;;20.50;9.70;;;3.70;89.00;;;;;;5025230;28;20037;-60
2023/01/25 09:02:18;;;;;;;19.15;9.27;;;3.60;88.90;;;;;;5020265;28;20034;-60
2023/01/25 09:04:43;;;;;;;19.58;9.70;;;3.70;89.10;;;;;;5025016;28;20072;-61
2023/01/25 09:07:09;;;;;;;18.00;9.75;;;3.60;89.00;;;;;;5026344;28;20037;-62
2023/01/25 09:09:34;;;;;;;17.83;9.85;;;3.70;89.10;;;;;;5025452;28;20569;-61
2023/01/25 09:12:00;;;;;;;18.45;9.55;;;3.70;89.10;;;;;;5023583;28;20042;-61
2023/01/25 09:14:25;;;;;;;18.33;9.45;;;3.70;89.00;;;;;;5024967;28;20033;-60
2023/01/25 09:16:51;;;;;;;19.13;9.60;;;3.70;88.90;;;;;;5024903;28;20041;-59
2023/01/25 09:19:17;;;;;;;18.42;9.40;;;3.70;89.80;;;;;;5025929;28;20121;-61
2023/01/25 09:21:42;;;;;;;19.65;9.70;;;3.70;88.90;;;;;;5024509;28;20128;-61
2023/01/25 09:24:08;;;;;;;17.45;9.25;;;3.70;88.90;;;;;;5024499;28;20037;-60
2023/01/25 09:26:39;;;;;;;18.35;9.38;;;3.70;88.90;;;;;;5025510;28;20521;-62
2023/01/25 09:29:06;;;;;;;21.67;9.98;;;3.60;88.90;;;;;;5024783;28;20040;-61
2023/01/25 09:31:32;;;;;;;17.48;8.93;;;3.60;88.90;;;;;;5025940;28;20132;-62
2023/01/25 09:33:58;;;;;;;20.10;9.98;;;3.70;89.00;;;;;;5025483;28;20121;-60
2023/01/25 09:36:23;;;;;;;19.00;9.65;;;3.70;88.90;;;;;;5026076;28;20565;-60
2023/01/25 09:38:49;;;;;;;18.85;9.48;;;3.70;88.90;;;;;;5024061;28;20036;-62
2023/01/25 09:41:18;;;;;;;16.67;8.90;;;3.70;88.90;;;;;;5024801;28;20273;-62
2023/01/25 09:43:52;;;;;;;16.88;8.98;;;3.70;88.90;;;;;;5024617;28;20577;-62
2023/01/25 09:46:23;;;;;;;;;;;3.70;88.90;;;;;;5026474;28;20549;-62
2023/01/25 09:49:13;;;;;;;17.70;8.95;;;3.70;89.00;;;;;;5023044;28;20440;-61
2023/01/25 09:52:05;;;;;;;15.88;8.65;;;3.70;88.70;;;;;;5024653;28;20308;-57
2023/01/25 09:54:38;;;;;;;20.35;10.10;;;3.70;89.60;;;;;;5023388;28;20067;-61
2023/01/25 09:57:09;;;;;;;17.42;9.25;;;3.60;88.70;;;;;;5022562;28;20306;-62
2023/01/25 09:59:35;;;;;;;19.85;9.45;;;3.70;88.90;;;;;;5026760;28;20034;-61
2023/01/25 10:02:12;;;;;;;19.55;9.38;;;3.70;89.00;;;;;;5026513;28;20048;-61
2023/01/25 10:04:42;;;;;;;21.13;10.15;;;3.70;88.90;;;;;;5026494;28;20044;-62
2023/01/25 10:07:22;;;;;;;24.08;10.82;;;3.70;88.90;;;;;;5026854;28;20030;-60
2023/01/25 10:10:04;;;;;;;19.13;9.80;;;3.70;89.00;;;;;;5025537;28;20576;-60
2023/01/25 10:12:35;;;;;;;22.42;10.70;;;3.70;89.80;;;;;;5022446;28;20049;-60
2023/01/25 10:15:02;;;;;;;21.42;10.80;;;3.60;88.90;;;;;;5027010;28;20409;-60
2023/01/25 10:17:37;;;;;;;24.73;10.95;;;3.70;89.00;;;;;;5026972;28;20029;-62
2023/01/25 10:20:32;;;;;;;19.73;10.10;;;3.70;89.00;;;;;;5026910;28;20025;-61
2023/01/25 10:23:25;;;;;;;23.20;10.48;;;3.60;89.00;;;;;;5026748;28;20037;-62
2023/01/25 10:25:57;;;;;;;21.02;10.02;;;3.60;89.00;;;;;;5026697;28;20137;-62
2023/01/25 10:28:31;;;;;;;22.95;10.27;;;3.60;89.10;;;;;;5029831;28;20034;-62
2023/01/25 10:31:10;;;;;;;21.10;9.43;;;3.60;89.00;;;;;;5029280;28;20075;-61
2023/01/25 10:33:39;;;;;;;21.67;10.32;;;3.60;88.90;;;;;;5029669;28;20529;-60
2023/01/25 10:36:06;;;;;;;20.73;9.90;;;3.60;88.90;;;;;;5030014;28;20083;-60
2023/01/25 10:38:35;;;;;;;21.52;10.35;;;3.50;88.90;;;;;;5029748;28;20065;-61
2023/01/25 10:41:27;;;;;;;20.13;9.48;;;3.50;88.90;;;;;;5029072;28;20041;-61
2023/01/25 10:46:39;;;;;;;21.63;9.45;;;3.50;89.10;;;;;;5029496;28;20448;-61
2023/01/25 10:49:28;;;;;;;19.10;9.07;;;3.40;89.10;;;;;;5029350;28;20029;-61
2023/01/25 10:51:54;;;;;;;18.85;9.32;;;3.50;89.40;;;;;;5029720;28;20038;-60
2023/01/25 10:54:21;;;;;;;18.95;9.15;;;3.40;89.30;;;;;;5026426;28;20443;-61
2023/01/25 10:56:48;;;;;;;20.05;9.27;;;3.40;89.30;;;;;;5029065;28;20068;-61
2023/01/25 10:59:16;;;;;;;19.98;8.65;;;3.40;89.40;;;;;;5027818;28;20525;-61
2023/01/25 11:01:42;;;;;;;21.38;9.65;;;3.40;89.40;;;;;;5027972;28;20255;-62
2023/01/25 11:04:31;;;;;;;23.15;10.15;;;3.40;89.40;;;;;;5027672;28;20037;-61
2023/01/25 11:06:58;;;;;;;19.23;9.23;;;3.50;89.70;;;;;;5028054;28;20040;-62
2023/01/25 11:09:32;;;;;;;19.10;9.50;;;3.40;89.50;;;;;;5027765;28;20099;-59
2023/01/25 11:12:00;;;;;;;16.88;8.48;;;3.50;89.60;;;;;;5023850;28;20037;-61
2023/01/25 11:14:31;;;;;;;17.92;8.57;;;3.50;89.60;;;;;;5025766;28;20029;-62
2023/01/25 11:16:59;;;;;;;16.38;7.70;;;3.50;89.50;;;;;;5027293;28;20045;-62
2023/01/25 11:19:36;;;;;;;14.60;8.00;;;3.50;89.40;;;;;;5028249;28;20065;-60
2023/01/25 11:22:19;;;;;;;15.23;8.02;;;3.50;89.40;;;;;;5026972;28;20081;-61
2023/01/25 11:24:45;;;;;;;16.58;8.10;;;3.50;89.30;;;;;;5026510;28;20088;-62
2023/01/25 11:27:19;;;;;;;16.90;8.35;;;3.50;89.30;;;;;;5026549;28;20041;-63
2023/01/25 11:30:04;;;;;;;16.05;8.32;;;3.50;89.30;;;;;;5026223;28;20033;-60
2023/01/25 11:32:30;;;;;;;16.90;7.78;;;3.50;89.30;;;;;;5024957;28;20041;-62
2023/01/25 11:34:56;;;;;;;16.25;7.93;;;3.50;89.20;;;;;;5026530;28;20033;-62
2023/01/25 11:37:40;;;;;;;15.25;7.80;;;3.50;89.10;;;;;;5026985;28;20026;-63
2023/01/25 11:40:44;;;;;;;16.35;8.68;;;3.50;89.10;;;;;;5025580;28;20405;-62
2023/01/25 11:43:12;;;;;;;16.92;8.10;;;3.50;89.10;;;;;;5025077;28;20045;-60
2023/01/25 11:46:11;;;;;;;19.02;8.75;;;3.50;89.10;;;;;;5026247;28;20329;-61
2023/01/25 11:49:02;;;;;;;18.35;8.82;;;3.50;89.10;;;;;;5024683;28;20034;-62
2023/01/25 11:51:48;;;;;;;18.63;9.52;;;3.50;89.20;;;;;;5024525;28;20033;-62
2023/01/25 11:54:34;;;;;;;17.75;8.98;;;3.50;89.20;;;;;;5041123;28;20733;-61
2023/01/25 11:57:23;;;;;;;20.42;9.60;;;3.50;89.20;;;;;;5026283;28;20124;-60
2023/01/25 12:00:26;;;;;;;20.23;9.50;;;3.50;89.10;;;;;;5026775;28;20104;-60
2023/01/25 12:03:09;;;;;;;20.52;10.05;;;3.50;89.20;;;;;;5026022;28;20038;-61
2023/01/25 12:05:56;;;;;;;22.20;11.00;;;3.50;89.20;;;;;;5026987;28;20037;-60
2023/01/25 12:08:43;;;;;;;19.92;9.60;;;3.50;89.30;;;;;;5028078;28;20082;-61
2023/01/25 12:11:33;;;;;;;20.63;9.88;;;3.50;89.30;;;;;;5023463;28;20037;-60
2023/01/25 12:14:36;;;;;;;18.27;9.10;;;3.50;89.10;;;;;;5027880;28;20386;-60
2023/01/25 12:17:04;;;;;;;18.33;8.43;;;3.40;88.90;;;;;;5027398;28;20041;-61
2023/01/25 12:19:54;;;;;;;15.88;8.48;;;3.40;88.90;;;;;;5027575;28;20663;-60
2023/01/25 12:22:23;;;;;;;18.80;9.00;;;3.40;89.10;;;;;;5028228;28;20040;-61
2023/01/25 12:24:57;;;;;;;21.90;9.02;;;3.40;89.20;;;;;;5027327;28;20037;-61
2023/01/25 12:27:48;;;;;;;18.38;9.13;;;3.40;89.10;;;;;;5027658;28;20033;-60
2023/01/25 12:30:35;;;;;;;18.63;8.70;;;3.50;89.20;;;;;;5027530;28;20034;-62
2023/01/25 12:33:11;;;;;;;19.67;9.18;;;3.50;89.30;;;;;;5026094;28;21629;-61
2023/01/25 12:35:41;;;;;;;17.92;9.07;;;3.50;89.20;;;;;;5028261;28;20059;-61
2023/01/25 12:38:18;;;;;;;15.85;8.50;;;3.50;89.10;;;;;;5028024;28;20413;-60
2023/01/25 12:41:02;;;;;;;19.02;9.02;;;3.50;89.10;;;;;;5026215;28;20048;-60
2023/01/25 12:43:37;;;;;;;19.57;9.67;;;3.60;89.10;;;;;;5025887;28;20033;-60
2023/01/25 12:46:14;;;;;;;20.83;9.45;;;3.60;89.00;;;;;;5027519;28;20411;-61
2023/01/25 12:48:46;;;;;;;21.00;9.93;;;3.60;88.90;;;;;;5027181;28;20029;-61
2023/01/25 12:51:14;;;;;;;21.63;10.05;;;3.60;88.80;;;;;;5026748;28;20042;-60
2023/01/25 12:53:45;;;;;;;24.55;10.00;;;3.60;88.70;;;;;;5027943;28;20036;-62
2023/01/25 12:56:33;;;;;;;27.45;10.32;;;3.60;88.70;;;;;;5028375;28;20508;-62
2023/01/25 12:59:27;;;;;;;23.05;10.35;;;3.60;88.60;;;;;;5026955;28;20126;-61